createdAt,value
2017-08-30T00:00:50.778Z,19.20
2017-08-30T00:03:19.393Z,19.20
2017-08-30T00:05:47.742Z,19.20
2017-08-30T00:08:16.012Z,19.20
2017-08-30T00:10:44.691Z,19.20
2017-08-30T00:13:14.694Z,19.20
2017-08-30T00:15:43.357Z,19.10
2017-08-30T00:18:12.619Z,19.10
2017-08-30T00:20:40.953Z,19.00
2017-08-30T00:23:09.264Z,18.90
2017-08-30T00:25:49.508Z,18.80
2017-08-30T00:28:18.096Z,18.70
2017-08-30T00:30:46.404Z,18.70
2017-08-30T00:33:14.718Z,18.60
2017-08-30T00:35:43.408Z,18.60
2017-08-30T00:38:11.677Z,18.60
2017-08-30T00:40:40.032Z,18.60
2017-08-30T00:43:08.689Z,18.50
2017-08-30T00:45:36.984Z,18.50
2017-08-30T00:48:05.315Z,18.40
2017-08-30T00:50:33.945Z,18.30
2017-08-30T00:53:02.222Z,18.30
2017-08-30T00:55:30.515Z,18.20
2017-08-30T00:57:58.841Z,18.20
2017-08-30T01:00:27.204Z,18.20
2017-08-30T01:02:55.832Z,18.10
2017-08-30T01:05:24.184Z,18.10
2017-08-30T01:07:52.596Z,18.10
2017-08-30T01:10:20.974Z,18.00
2017-08-30T01:12:49.255Z,18.00
2017-08-30T01:15:18.522Z,17.90
2017-08-30T01:17:46.833Z,17.90
2017-08-30T01:20:15.173Z,17.90
2017-08-30T01:22:43.464Z,17.80
2017-08-30T01:25:11.781Z,17.80
2017-08-30T01:27:40.356Z,17.80
2017-08-30T01:30:08.659Z,17.80
2017-08-30T01:32:37.063Z,17.80
2017-08-30T01:35:05.857Z,17.70
2017-08-30T01:37:34.167Z,17.70
2017-08-30T01:40:02.820Z,17.70
2017-08-30T01:42:31.150Z,17.60
2017-08-30T01:44:59.432Z,17.60
2017-08-30T01:47:28.356Z,17.60
2017-08-30T01:49:57.921Z,17.50
2017-08-30T01:52:26.479Z,17.50
2017-08-30T01:54:54.772Z,17.50
2017-08-30T01:57:23.101Z,17.50
2017-08-30T01:59:51.753Z,17.40
2017-08-30T02:02:20.168Z,17.40
2017-08-30T02:04:48.471Z,17.30
2017-08-30T02:07:16.789Z,17.40
2017-08-30T02:09:46.293Z,17.30
2017-08-30T02:12:15.587Z,17.30
2017-08-30T02:14:44.343Z,17.30
2017-08-30T02:17:12.681Z,17.30
2017-08-30T02:19:41.346Z,17.30
2017-08-30T02:22:09.636Z,17.20
2017-08-30T02:24:37.942Z,17.20
2017-08-30T02:27:07.314Z,17.20
2017-08-30T02:29:35.639Z,17.10
2017-08-30T02:32:03.981Z,17.10
2017-08-30T02:34:32.876Z,17.20
2017-08-30T02:37:01.201Z,17.20
2017-08-30T02:39:29.759Z,17.10
2017-08-30T02:41:58.098Z,17.10
2017-08-30T02:44:26.382Z,17.10
2017-08-30T02:46:55.000Z,17.10
2017-08-30T02:49:23.293Z,17.10
2017-08-30T02:51:51.662Z,17.10
2017-08-30T02:54:19.995Z,17.10
2017-08-30T02:56:48.272Z,17.00
2017-08-30T02:59:16.941Z,17.00
2017-08-30T03:01:45.562Z,17.00
2017-08-30T03:04:13.824Z,17.00
2017-08-30T03:06:42.678Z,16.90
2017-08-30T03:09:10.985Z,16.90
2017-08-30T03:11:39.651Z,16.90
2017-08-30T03:14:08.736Z,16.90
2017-08-30T03:16:37.026Z,16.90
2017-08-30T03:19:05.642Z,16.90
2017-08-30T03:21:34.839Z,17.00
2017-08-30T03:24:03.620Z,17.00
2017-08-30T03:26:33.027Z,16.90
2017-08-30T03:29:01.356Z,16.90
2017-08-30T03:31:29.636Z,16.90
2017-08-30T03:33:59.754Z,16.90
2017-08-30T03:36:28.937Z,16.90
2017-08-30T03:38:57.613Z,16.90
2017-08-30T03:41:25.944Z,16.90
2017-08-30T03:43:54.703Z,16.90
2017-08-30T03:46:23.347Z,16.90
2017-08-30T03:48:51.780Z,16.80
2017-08-30T03:51:20.096Z,16.80
2017-08-30T03:53:48.738Z,16.80
2017-08-30T03:56:17.283Z,16.80
2017-08-30T03:58:45.938Z,16.80
2017-08-30T04:01:14.856Z,16.80
2017-08-30T04:03:43.157Z,16.70
2017-08-30T04:06:11.475Z,16.70
2017-08-30T04:08:40.597Z,16.70
2017-08-30T04:11:09.289Z,16.70
2017-08-30T04:13:38.050Z,16.60
2017-08-30T04:16:06.348Z,16.70
2017-08-30T04:18:35.713Z,16.60
2017-08-30T04:21:04.021Z,16.60
2017-08-30T04:23:32.912Z,16.60
2017-08-30T04:26:01.549Z,16.60
2017-08-30T04:28:30.198Z,16.60
2017-08-30T04:30:58.884Z,16.60
2017-08-30T04:33:27.237Z,16.60
2017-08-30T04:35:56.113Z,16.60
2017-08-30T04:38:24.744Z,16.60
2017-08-30T04:40:53.018Z,16.70
2017-08-30T04:43:23.170Z,16.70
2017-08-30T04:45:52.164Z,16.70
2017-08-30T04:48:21.502Z,16.80
2017-08-30T04:50:49.831Z,16.80
2017-08-30T04:53:18.426Z,16.90
2017-08-30T04:55:48.032Z,16.90
2017-08-30T04:58:16.349Z,17.00
2017-08-30T05:00:44.996Z,17.00
2017-08-30T05:03:13.396Z,17.00
2017-08-30T05:05:41.839Z,17.00
2017-08-30T05:08:10.168Z,17.10
2017-08-30T05:10:38.819Z,17.10
2017-08-30T05:13:07.415Z,17.20
2017-08-30T05:15:35.760Z,17.20
2017-08-30T05:18:04.080Z,17.30
2017-08-30T05:20:32.675Z,17.30
2017-08-30T05:23:01.012Z,17.40
2017-08-30T05:25:29.346Z,17.50
2017-08-30T05:27:59.062Z,17.60
2017-08-30T05:30:27.394Z,17.70
2017-08-30T05:32:55.754Z,17.80
2017-08-30T05:35:24.509Z,17.80
2017-08-30T05:37:52.955Z,17.90
2017-08-30T05:40:22.082Z,18.10
2017-08-30T05:42:50.740Z,18.00
2017-08-30T05:45:19.071Z,18.20
2017-08-30T05:47:48.134Z,18.20
2017-08-30T05:50:16.762Z,18.30
2017-08-30T05:52:45.133Z,18.40
2017-08-30T05:55:13.455Z,18.40
2017-08-30T05:57:42.360Z,18.50
2017-08-30T06:00:10.721Z,18.60
2017-08-30T06:02:39.022Z,18.70
2017-08-30T06:05:07.390Z,18.80
2017-08-30T06:07:35.835Z,18.90
2017-08-30T06:10:05.138Z,19.00
2017-08-30T06:12:33.454Z,19.10
2017-08-30T06:15:02.261Z,19.20
2017-08-30T06:17:30.970Z,19.30
2017-08-30T06:20:00.296Z,19.40
2017-08-30T06:22:28.634Z,19.60
2017-08-30T06:25:00.270Z,19.70
2017-08-30T06:27:28.575Z,19.80
2017-08-30T06:29:57.004Z,19.80
2017-08-30T06:32:25.698Z,19.80
2017-08-30T06:34:54.123Z,20.00
2017-08-30T06:37:22.569Z,20.10
2017-08-30T06:39:51.654Z,20.30
2017-08-30T06:42:19.973Z,20.20
2017-08-30T06:44:48.602Z,20.30
2017-08-30T06:47:16.899Z,20.50
2017-08-30T06:49:45.287Z,20.60
2017-08-30T06:52:14.151Z,20.70
2017-08-30T06:54:42.637Z,20.80
2017-08-30T06:57:11.240Z,20.90
2017-08-30T06:59:40.003Z,21.00
2017-08-30T07:02:08.710Z,21.10
2017-08-30T07:04:37.198Z,21.10
2017-08-30T07:07:05.489Z,21.20
2017-08-30T07:09:34.181Z,21.30
2017-08-30T07:12:04.020Z,21.40
2017-08-30T07:14:32.846Z,21.60
2017-08-30T07:17:01.467Z,21.70
2017-08-30T07:19:29.784Z,21.80
2017-08-30T07:21:58.093Z,21.90
2017-08-30T07:24:26.524Z,22.10
2017-08-30T07:26:54.849Z,22.20
2017-08-30T07:29:23.900Z,22.30
2017-08-30T07:31:52.323Z,22.40
2017-08-30T07:34:21.552Z,22.50
2017-08-30T07:36:49.860Z,22.70
2017-08-30T07:39:18.162Z,22.80
2017-08-30T07:41:46.787Z,22.90
2017-08-30T07:44:15.096Z,23.00
2017-08-30T07:46:43.612Z,23.10
2017-08-30T07:49:11.937Z,23.20
2017-08-30T07:51:41.039Z,23.30
2017-08-30T07:54:10.588Z,23.30
2017-08-30T07:56:38.883Z,23.40
2017-08-30T07:59:07.615Z,23.40
2017-08-30T08:01:36.945Z,23.70
2017-08-30T08:04:05.699Z,23.60
2017-08-30T08:06:34.039Z,23.80
2017-08-30T08:09:02.327Z,24.00
2017-08-30T08:11:30.652Z,24.10
2017-08-30T08:13:59.005Z,24.20
2017-08-30T08:16:27.564Z,24.40
2017-08-30T08:18:57.289Z,24.60
2017-08-30T08:21:25.566Z,24.80
2017-08-30T08:23:54.198Z,24.90
2017-08-30T08:26:22.911Z,25.10
2017-08-30T08:28:51.233Z,25.20
2017-08-30T08:31:21.070Z,25.40
2017-08-30T08:33:50.517Z,25.70
2017-08-30T08:36:18.862Z,25.70
2017-08-30T08:38:50.315Z,25.70
2017-08-30T08:41:18.715Z,25.70
2017-08-30T08:43:48.568Z,26.10
2017-08-30T08:46:18.066Z,26.20
2017-08-30T08:48:47.516Z,26.10
2017-08-30T08:51:16.423Z,26.30
2017-08-30T08:53:45.023Z,26.50
2017-08-30T08:56:13.309Z,26.70
2017-08-30T08:58:43.135Z,26.90
2017-08-30T09:01:12.103Z,27.00
2017-08-30T09:03:48.266Z,27.00
2017-08-30T09:06:16.610Z,27.00
2017-08-30T09:08:45.685Z,27.00
2017-08-30T09:26:12.926Z,27.50
2017-08-30T09:28:41.833Z,27.60
2017-08-30T09:31:10.130Z,27.60
2017-08-30T09:33:38.734Z,27.50
2017-08-30T09:36:08.522Z,28.10
2017-08-30T09:38:38.731Z,28.10
2017-08-30T09:41:09.126Z,28.30
2017-08-30T09:43:37.470Z,28.60
2017-08-30T10:08:33.697Z,30.50
2017-08-30T10:11:02.869Z,30.50
2017-08-30T10:21:00.132Z,31.20
2017-08-30T10:23:30.356Z,31.60
2017-08-30T10:25:58.678Z,31.60
2017-08-30T10:28:27.297Z,32.00
2017-08-30T10:30:55.582Z,32.10
2017-08-30T10:38:24.491Z,33.10
2017-08-30T10:43:22.406Z,32.40
2017-08-30T10:45:51.011Z,32.40
2017-08-30T10:50:48.911Z,33.10
2017-08-30T10:55:47.289Z,35.00
2017-08-30T11:13:15.428Z,38.50
2017-08-30T11:30:43.101Z,38.60
2017-08-30T11:43:12.002Z,38.60
2017-08-30T11:45:44.411Z,38.60
2017-08-30T11:50:43.113Z,39.70
2017-08-30T11:53:11.425Z,40.20
2017-08-30T11:55:41.662Z,36.60
2017-08-30T12:13:07.799Z,42.30
2017-08-30T12:15:36.278Z,42.10
2017-08-30T12:18:05.376Z,42.70
2017-08-30T12:20:33.773Z,42.10
2017-08-30T12:23:02.459Z,41.00
2017-08-30T12:25:31.467Z,39.90
2017-08-30T12:27:59.793Z,39.40
2017-08-30T12:30:29.873Z,40.30
2017-08-30T12:32:59.316Z,41.30
2017-08-30T12:35:29.141Z,41.10
2017-08-30T12:38:03.795Z,41.00
2017-08-30T12:48:01.725Z,39.60
2017-08-30T12:52:59.874Z,37.80
2017-08-30T13:00:27.702Z,39.60
2017-08-30T13:07:56.517Z,39.20
2017-08-30T13:12:54.700Z,36.40
2017-08-30T13:15:23.902Z,36.10
2017-08-30T13:17:52.184Z,35.80
2017-08-30T13:22:51.005Z,36.30
2017-08-30T13:25:19.636Z,36.30
2017-08-30T13:27:47.953Z,36.70
2017-08-30T13:32:48.088Z,35.10
2017-08-30T13:37:47.135Z,34.90
2017-08-30T13:40:16.546Z,33.40
2017-08-30T13:42:45.345Z,33.30
2017-08-30T13:45:13.929Z,33.30
2017-08-30T13:47:42.293Z,33.20
2017-08-30T13:50:11.398Z,33.10
2017-08-30T13:52:39.782Z,33.30
2017-08-30T13:57:37.916Z,32.50
2017-08-30T14:00:06.273Z,32.70
2017-08-30T14:27:32.516Z,37.40
2017-08-30T14:30:00.824Z,37.20
2017-08-30T14:32:31.573Z,36.30
2017-08-30T14:34:59.911Z,36.30
2017-08-30T14:42:27.675Z,37.50
2017-08-30T14:47:26.570Z,40.00
2017-08-30T14:52:25.939Z,40.20
2017-08-30T14:54:56.574Z,38.50
2017-08-30T14:57:24.885Z,38.40
2017-08-30T14:59:54.018Z,37.90
2017-08-30T15:02:22.312Z,37.70
2017-08-30T15:44:47.503Z,37.90
2017-08-30T15:47:15.786Z,37.50
2017-08-30T15:49:44.774Z,37.00
2017-08-30T15:52:13.175Z,36.60
2017-08-30T15:54:42.610Z,36.00
2017-08-30T15:57:11.251Z,36.00
2017-08-30T15:59:40.255Z,35.10
2017-08-30T16:02:08.535Z,34.10
2017-08-30T16:04:36.869Z,33.90
2017-08-30T16:07:06.392Z,33.40
2017-08-30T16:09:36.657Z,33.10
2017-08-30T16:12:06.407Z,31.80
2017-08-30T16:14:34.709Z,31.70
2017-08-30T16:17:03.592Z,31.10
2017-08-30T16:19:31.920Z,30.90
2017-08-30T16:22:00.706Z,30.70
2017-08-30T16:24:29.034Z,30.50
2017-08-30T16:26:57.386Z,30.40
2017-08-30T16:29:25.696Z,30.20
2017-08-30T16:31:54.021Z,30.10
2017-08-30T16:34:22.652Z,30.10
2017-08-30T16:36:51.396Z,29.90
2017-08-30T16:46:06.801Z,29.70
2017-08-30T16:48:35.513Z,29.40
2017-08-30T16:51:04.086Z,29.30
2017-08-30T16:53:32.374Z,29.20
2017-08-30T16:56:00.686Z,29.20
2017-08-30T16:58:29.739Z,29.10
2017-08-30T17:00:58.021Z,29.00
2017-08-30T17:03:26.310Z,29.00
2017-08-30T17:05:55.205Z,28.90
2017-08-30T17:08:24.004Z,28.80
2017-08-30T17:10:53.246Z,28.70
2017-08-30T17:13:21.784Z,28.60
2017-08-30T17:15:50.192Z,28.50
2017-08-30T17:18:18.861Z,28.50
2017-08-30T17:20:47.160Z,28.30
2017-08-30T17:23:16.242Z,28.20
2017-08-30T17:25:44.568Z,28.20
2017-08-30T17:28:13.795Z,28.00
2017-08-30T17:30:48.320Z,28.00
2017-08-30T17:33:16.600Z,27.90
2017-08-30T17:35:45.292Z,27.80
2017-08-30T17:38:13.865Z,27.70
2017-08-30T17:40:42.136Z,27.70
2017-08-30T17:43:10.797Z,27.60
2017-08-30T17:45:39.681Z,27.50
2017-08-30T17:48:07.957Z,27.40
2017-08-30T17:50:37.153Z,27.40
2017-08-30T17:53:05.481Z,27.30
2017-08-30T17:55:34.157Z,27.20
2017-08-30T17:58:03.300Z,27.10
2017-08-30T18:00:31.613Z,27.10
2017-08-30T18:03:00.303Z,27.00
2017-08-30T18:05:29.210Z,26.90
2017-08-30T18:07:57.522Z,26.90
2017-08-30T18:10:26.114Z,26.90
2017-08-30T18:12:54.421Z,26.80
2017-08-30T18:15:22.970Z,26.80
2017-08-30T18:17:52.041Z,26.70
2017-08-30T18:20:20.323Z,26.60
2017-08-30T18:22:48.876Z,26.60
2017-08-30T18:25:17.144Z,26.60
2017-08-30T18:27:45.742Z,26.50
2017-08-30T18:30:14.050Z,26.50
2017-08-30T18:32:42.762Z,26.40
2017-08-30T18:35:11.088Z,26.40
2017-08-30T18:37:39.384Z,26.40
2017-08-30T18:40:08.022Z,26.30
2017-08-30T18:42:37.237Z,26.20
2017-08-30T18:45:05.677Z,26.20
2017-08-30T18:47:34.780Z,26.20
2017-08-30T18:50:03.070Z,26.10
2017-08-30T18:52:31.666Z,26.00
2017-08-30T18:54:59.938Z,26.00
2017-08-30T18:57:28.421Z,25.90
2017-08-30T18:59:56.759Z,25.90
2017-08-30T19:02:25.519Z,25.90
2017-08-30T19:04:54.094Z,25.80
2017-08-30T19:07:22.482Z,25.70
2017-08-30T19:09:51.370Z,25.70
2017-08-30T19:12:19.706Z,25.60
2017-08-30T19:14:47.976Z,25.60
2017-08-30T19:17:17.349Z,25.60
2017-08-30T19:19:46.658Z,25.50
2017-08-30T19:22:15.647Z,25.50
2017-08-30T19:24:44.000Z,25.40
2017-08-30T19:27:13.757Z,25.40
2017-08-30T19:29:42.439Z,25.30
2017-08-30T19:32:11.511Z,25.30
2017-08-30T19:34:39.824Z,25.30
2017-08-30T19:37:08.144Z,25.20
2017-08-30T19:39:37.375Z,25.20
2017-08-30T19:42:05.977Z,25.10
2017-08-30T19:44:34.476Z,25.00
2017-08-30T19:47:02.781Z,25.10
2017-08-30T19:49:31.838Z,25.00
2017-08-30T19:52:00.123Z,25.00
2017-08-30T19:54:28.738Z,25.00
2017-08-30T19:56:57.021Z,25.00
2017-08-30T19:59:26.118Z,25.00
2017-08-30T20:01:55.489Z,25.00
2017-08-30T20:04:23.782Z,25.00
2017-08-30T20:06:52.091Z,25.00
2017-08-30T20:09:20.979Z,24.90
2017-08-30T20:11:49.454Z,24.90
2017-08-30T20:14:18.045Z,24.90
2017-08-30T20:16:46.359Z,24.90
2017-08-30T20:19:14.659Z,24.90
2017-08-30T20:21:43.706Z,24.80
2017-08-30T20:24:12.937Z,24.80
2017-08-30T20:26:41.654Z,24.80
2017-08-30T20:29:10.739Z,24.80
2017-08-30T20:31:39.137Z,24.70
2017-08-30T20:34:07.762Z,24.70
2017-08-30T20:36:36.102Z,24.70
2017-08-30T20:39:04.388Z,24.70
2017-08-30T20:41:32.742Z,24.70
2017-08-30T20:44:01.070Z,24.70
2017-08-30T20:46:30.127Z,24.60
2017-08-30T20:48:59.370Z,24.60
2017-08-30T20:51:27.727Z,24.60
2017-08-30T20:53:57.058Z,24.60
2017-08-30T20:56:26.008Z,24.60
2017-08-30T20:58:54.394Z,24.60
2017-08-30T21:01:23.022Z,24.60
2017-08-30T21:03:51.358Z,24.60
2017-08-30T21:06:21.043Z,24.60
2017-08-30T21:08:49.672Z,24.60
2017-08-30T21:11:18.276Z,24.60
2017-08-30T21:13:46.586Z,24.60
2017-08-30T21:16:15.257Z,24.50
2017-08-30T21:18:43.593Z,24.50
2017-08-30T21:21:11.874Z,24.50
2017-08-30T21:23:40.188Z,24.40
2017-08-30T21:26:09.249Z,24.40
2017-08-30T21:28:37.838Z,24.40
2017-08-30T21:31:06.148Z,24.30
2017-08-30T21:33:34.987Z,24.30
2017-08-30T21:36:03.300Z,24.30
2017-08-30T21:38:31.589Z,24.30
2017-08-30T21:41:01.375Z,24.20
2017-08-30T21:43:30.291Z,24.20
2017-08-30T21:45:58.601Z,24.20
2017-08-30T21:48:27.067Z,24.10
